Time;durP1;ratioP1;P1;durP2;ratioP2;P2;SDS_P1;SDS_P2;PMS_P1;PMS_P2;Temp;Humidity;BMP_temperature;BMP_pressure;BME280_temperature;BME280_humidity;BME280_pressure;Samples;Min_cycle;Max_cycle;Signal;HPM_P1;HPM_P2
2023/10/10 00:00:23;;;;;;;5.60;2.83;;;;;;;12.29;100.00;101319.16;5034950;28;20518;-71
2023/10/10 00:02:51;;;;;;;6.70;3.10;;;;;;;12.25;100.00;101326.25;5035020;28;20522;-71
2023/10/10 00:05:18;;;;;;;6.60;3.10;;;;;;;12.20;100.00;101326.34;5034937;28;20443;-71
2023/10/10 00:07:45;;;;;;;7.13;2.90;;;;;;;12.16;100.00;101324.50;5063711;22;20582;-67
2023/10/10 00:10:13;;;;;;;5.40;2.63;;;;;;;12.12;100.00;101321.56;5074891;28;20438;-67
2023/10/10 00:12:41;;;;;;;5.87;2.83;;;;;;;12.09;100.00;101320.25;5075013;28;20445;-66
2023/10/10 00:15:25;;;;;;;4.70;2.43;;;;;;;12.06;100.00;101320.84;5074577;28;20481;-67
2023/10/10 00:17:58;;;;;;;4.57;2.27;;;;;;;12.06;100.00;101317.31;5074343;28;20992;-67
2023/10/10 00:20:29;;;;;;;4.90;2.97;;;;;;;12.02;100.00;101319.81;5074334;28;20428;-67
2023/10/10 00:22:58;;;;;;;4.20;1.77;;;;;;;12.04;100.00;101322.22;5074657;28;20428;-66
2023/10/10 00:25:30;;;;;;;5.40;2.40;;;;;;;12.08;100.00;101321.34;5074184;28;21004;-66
2023/10/10 00:28:04;;;;;;;4.87;2.67;;;;;;;12.09;100.00;101317.53;5074857;28;20457;-66
2023/10/10 00:30:35;;;;;;;5.43;2.33;;;;;;;12.11;100.00;101317.25;5074167;28;20421;-66
2023/10/10 00:33:03;;;;;;;4.10;2.03;;;;;;;12.12;100.00;101316.13;5074500;28;20429;-65
2023/10/10 00:35:31;;;;;;;3.80;1.97;;;;;;;12.10;100.00;101312.91;5073591;28;20578;-65
2023/10/10 00:37:57;;;;;;;5.70;2.40;;;;;;;12.08;100.00;101309.66;5073826;28;20469;-66
2023/10/10 00:40:29;;;;;;;5.13;2.53;;;;;;;12.06;100.00;101309.16;5074146;28;20442;-67
2023/10/10 00:42:59;;;;;;;5.70;2.60;;;;;;;12.05;100.00;101315.72;5074562;28;20422;-66
2023/10/10 00:45:36;;;;;;;4.17;2.20;;;;;;;12.00;100.00;101316.59;5074081;28;20433;-66
2023/10/10 00:48:03;;;;;;;6.10;2.60;;;;;;;11.97;100.00;101310.94;5074326;28;20526;-66
2023/10/10 00:50:34;;;;;;;4.97;2.80;;;;;;;11.93;100.00;101310.69;5074104;28;20808;-66
2023/10/10 00:53:03;;;;;;;4.73;2.00;;;;;;;11.95;100.00;101304.97;5074581;28;20429;-66
2023/10/10 00:55:33;;;;;;;4.97;2.43;;;;;;;11.94;100.00;101314.22;5073853;28;21014;-66
2023/10/10 00:58:01;;;;;;;4.80;2.07;;;;;;;11.98;100.00;101317.97;5074043;28;20465;-66
2023/10/10 01:00:29;;;;;;;5.13;2.43;;;;;;;11.98;100.00;101309.81;5074166;28;20444;-66
2023/10/10 01:03:06;;;;;;;3.90;1.70;;;;;;;12.02;100.00;101310.84;5074505;28;20540;-66
2023/10/10 01:05:39;;;;;;;5.00;2.30;;;;;;;11.99;100.00;101319.56;5074157;28;20429;-66
2023/10/10 01:08:07;;;;;;;3.83;1.60;;;;;;;12.00;100.00;101311.16;5073565;28;20552;-66
2023/10/10 01:10:42;;;;;;;4.70;2.10;;;;;;;12.04;100.00;101317.63;5073718;28;20441;-66
2023/10/10 01:13:11;;;;;;;4.20;1.87;;;;;;;12.12;100.00;101307.97;5073728;28;20418;-66
2023/10/10 01:15:38;;;;;;;4.10;1.93;;;;;;;12.10;100.00;101304.78;5073295;28;21016;-66
2023/10/10 01:18:12;;;;;;;5.40;2.07;;;;;;;12.10;100.00;101299.34;5073606;28;20462;-66
2023/10/10 01:20:46;;;;;;;6.20;2.10;;;;;;;12.11;100.00;101295.50;5073667;28;20769;-66
2023/10/10 01:23:14;;;;;;;5.10;1.80;;;;;;;12.14;100.00;101300.38;5073891;28;20430;-66
2023/10/10 01:25:45;;;;;;;5.83;2.47;;;;;;;12.18;100.00;101304.13;5073816;28;20438;-66
2023/10/10 01:28:33;;;;;;;5.27;2.27;;;;;;;12.20;100.00;101293.75;5073268;28;20421;-66
2023/10/10 01:31:03;;;;;;;4.33;1.90;;;;;;;12.25;100.00;101290.94;5073514;28;20425;-66
2023/10/10 01:33:40;;;;;;;4.20;2.13;;;;;;;12.30;100.00;101292.78;5073915;28;20434;-66
2023/10/10 01:36:12;;;;;;;3.70;1.70;;;;;;;12.28;100.00;101290.38;5073086;28;20485;-66
2023/10/10 01:39:00;;;;;;;3.90;1.73;;;;;;;12.32;100.00;101285.97;5073435;28;20429;-66
2023/10/10 01:41:38;;;;;;;9.70;2.40;;;;;;;12.38;100.00;101292.13;5073588;28;20449;-66
2023/10/10 01:44:11;;;;;;;3.07;1.33;;;;;;;12.40;100.00;101286.41;5073759;28;20425;-66
2023/10/10 01:46:37;;;;;;;5.23;2.67;;;;;;;12.42;100.00;101289.63;5074470;28;20449;-66
2023/10/10 01:49:06;;;;;;;4.90;1.90;;;;;;;12.44;100.00;101292.84;5077467;28;20512;-66
2023/10/10 01:51:34;;;;;;;4.13;1.90;;;;;;;12.45;100.00;101295.28;5077320;28;20539;-66
2023/10/10 01:54:06;;;;;;;4.30;2.20;;;;;;;12.38;100.00;101284.78;5078055;28;20530;-66
2023/10/10 01:56:32;;;;;;;7.20;2.60;;;;;;;12.35;100.00;101285.38;5077947;28;20493;-66
2023/10/10 01:59:03;;;;;;;5.27;2.50;;;;;;;12.35;100.00;101279.94;5077030;28;20540;-66
2023/10/10 02:01:31;;;;;;;3.40;1.67;;;;;;;12.33;100.00;101281.34;5077577;28;20516;-66
2023/10/10 02:03:58;;;;;;;4.40;2.10;;;;;;;12.30;100.00;101276.50;5076855;28;20940;-66
2023/10/10 02:06:27;;;;;;;5.10;1.70;;;;;;;12.33;100.00;101274.00;5076403;28;20980;-66
2023/10/10 02:09:00;;;;;;;3.33;1.50;;;;;;;12.36;100.00;101267.19;5077047;28;20481;-66
2023/10/10 02:11:31;;;;;;;3.63;1.73;;;;;;;12.41;100.00;101275.25;5077639;28;20422;-67
2023/10/10 02:13:58;;;;;;;6.00;1.43;;;;;;;12.46;100.00;101275.16;5076993;28;20508;-66
2023/10/10 02:16:35;;;;;;;5.17;2.43;;;;;;;12.48;100.00;101280.28;5076151;28;20864;-66
2023/10/10 02:19:15;;;;;;;4.43;1.90;;;;;;;12.49;100.00;101279.19;5076815;28;20536;-66
2023/10/10 02:21:47;;;;;;;3.87;1.80;;;;;;;12.47;100.00;101286.81;5079777;28;20429;-68
2023/10/10 02:24:38;;;;;;;5.60;2.30;;;;;;;12.48;100.00;101278.38;5077250;28;20455;-66
2023/10/10 02:27:05;;;;;;;5.60;2.40;;;;;;;12.47;100.00;101282.19;5077124;28;20971;-66
2023/10/10 02:29:35;;;;;;;4.23;2.10;;;;;;;12.52;100.00;101289.44;5077520;28;20442;-66
2023/10/10 02:32:09;;;;;;;5.23;2.13;;;;;;;12.47;100.00;101275.97;5076901;28;20441;-65
2023/10/10 02:34:36;;;;;;;4.60;2.33;;;;;;;12.45;100.00;101289.03;5077095;28;20436;-65
2023/10/10 02:37:13;;;;;;;6.00;2.57;;;;;;;12.44;100.00;101288.25;5077319;28;20485;-65
2023/10/10 02:40:05;;;;;;;3.77;2.00;;;;;;;12.48;100.00;101289.22;5078228;28;20422;-65
2023/10/10 02:42:28;;;;;;;5.43;2.40;;;;;;;12.54;100.00;101282.63;5077681;28;20437;-65
2023/10/10 02:44:58;;;;;;;9.47;2.37;;;;;;;12.54;100.00;101279.91;5077672;28;20445;-66
2023/10/10 02:47:32;;;;;;;5.50;2.77;;;;;;;12.53;100.00;101282.94;5077225;28;20828;-66
2023/10/10 02:50:09;;;;;;;5.03;2.70;;;;;;;12.53;100.00;101281.03;5078114;28;20479;-66
2023/10/10 02:52:39;;;;;;;5.30;1.80;;;;;;;12.58;100.00;101274.69;5077491;28;20846;-66
2023/10/10 02:55:14;;;;;;;5.13;2.30;;;;;;;12.60;100.00;101277.91;5077370;28;20447;-66
2023/10/10 02:57:41;;;;;;;4.13;1.97;;;;;;;12.58;100.00;101282.84;5076745;28;20488;-66
2023/10/10 03:00:27;;;;;;;4.40;2.30;;;;;;;12.52;100.00;101265.81;5076479;28;20437;-65
2023/10/10 03:02:54;;;;;;;3.73;1.60;;;;;;;12.52;100.00;101254.13;5076802;28;20422;-65
2023/10/10 03:05:38;;;;;;;3.90;2.03;;;;;;;12.48;100.00;101261.25;5076641;28;20441;-66
2023/10/10 03:08:12;;;;;;;4.83;1.90;;;;;;;12.50;100.00;101259.06;5076593;28;20483;-65
2023/10/10 03:10:44;;;;;;;5.83;2.87;;;;;;;12.56;100.00;101257.88;5076841;28;20417;-65
2023/10/10 03:13:27;;;;;;;5.93;2.70;;;;;;;12.57;100.00;101259.47;5076971;28;20519;-66
2023/10/10 03:15:56;;;;;;;8.23;2.83;;;;;;;12.60;100.00;101259.69;5075679;28;20495;-66
2023/10/10 03:18:29;;;;;;;5.93;2.40;;;;;;;12.65;100.00;101258.00;5075764;28;20445;-66
2023/10/10 03:21:18;;;;;;;7.23;3.13;;;;;;;12.65;100.00;101258.78;5076003;28;20464;-66
2023/10/10 03:23:53;;;;;;;4.40;1.70;;;;;;;12.64;100.00;101268.06;5075875;28;20457;-66
2023/10/10 03:26:51;;;;;;;5.50;2.37;;;;;;;12.66;100.00;101271.31;5075829;28;20453;-65
2023/10/10 03:29:21;;;;;;;5.40;2.33;;;;;;;12.69;100.00;101270.69;5076058;28;20453;-66
2023/10/10 03:31:55;;;;;;;7.40;3.00;;;;;;;12.71;100.00;101275.84;5076033;28;20449;-66
2023/10/10 03:34:29;;;;;;;6.47;2.23;;;;;;;12.76;100.00;101282.00;5075574;28;20425;-66
2023/10/10 03:37:10;;;;;;;4.80;2.20;;;;;;;12.74;100.00;101295.06;5075357;28;20560;-66
2023/10/10 03:39:50;;;;;;;4.30;1.83;;;;;;;12.71;100.00;101290.25;5075801;28;20467;-66
2023/10/10 05:24:20;;;;;;;2.50;0.93;;;;;;;13.66;100.00;101301.53;5077057;28;21091;-65
2023/10/10 05:26:47;;;;;;;3.73;1.60;;;;;;;13.63;100.00;101302.97;5075147;28;20489;-65
2023/10/10 05:29:14;;;;;;;2.63;1.10;;;;;;;13.66;100.00;101300.72;5074734;28;20512;-65
2023/10/10 05:31:44;;;;;;;4.13;1.50;;;;;;;13.70;100.00;101302.53;5074560;28;20441;-65
2023/10/10 05:34:12;;;;;;;3.07;1.23;;;;;;;13.73;100.00;101301.94;5074418;28;20477;-65
2023/10/10 05:36:44;;;;;;;3.67;1.60;;;;;;;13.76;100.00;101306.75;5073640;28;20481;-66
2023/10/10 05:39:17;;;;;;;4.00;1.30;;;;;;;13.79;100.00;101308.06;5073829;28;20477;-66
2023/10/10 05:41:44;;;;;;;2.80;1.20;;;;;;;13.82;100.00;101304.75;5073467;28;20428;-66
2023/10/10 05:44:13;;;;;;;4.20;2.07;;;;;;;13.82;100.00;101302.84;5073772;28;20491;-66
2023/10/10 05:46:39;;;;;;;3.50;1.57;;;;;;;13.84;100.00;101305.25;5073945;28;20465;-68
2023/10/10 05:49:06;;;;;;;3.27;1.10;;;;;;;13.88;100.00;101306.25;5080174;28;20535;-68
2023/10/10 05:51:33;;;;;;;2.87;1.17;;;;;;;13.94;100.00;101307.72;5078405;28;20805;-68
2023/10/10 05:54:01;;;;;;;3.50;0.83;;;;;;;13.94;100.00;101318.63;5079538;28;20469;-69
2023/10/10 05:56:29;;;;;;;3.40;1.90;;;;;;;13.99;100.00;101309.53;5073401;28;20492;-67
2023/10/10 05:58:56;;;;;;;2.80;1.00;;;;;;;14.02;100.00;101309.75;5074056;28;20511;-67
2023/10/10 06:01:23;;;;;;;2.40;0.90;;;;;;;14.05;100.00;101314.59;5073960;28;20444;-69
2023/10/10 06:03:51;;;;;;;3.13;1.00;;;;;;;14.05;100.00;101302.88;5076280;28;20957;-70
2023/10/10 06:06:18;;;;;;;3.00;1.20;;;;;;;14.06;100.00;101316.19;5075747;28;20519;-70
2023/10/10 06:08:45;;;;;;;3.20;1.20;;;;;;;14.08;100.00;101319.44;5076754;28;20480;-71
2023/10/10 06:11:14;;;;;;;3.30;1.20;;;;;;;14.10;100.00;101324.56;5076843;28;20445;-71
2023/10/10 06:13:43;;;;;;;3.70;1.10;;;;;;;14.14;100.00;101325.56;5073364;28;20808;-68
2023/10/10 06:16:12;;;;;;;2.87;1.10;;;;;;;14.16;100.00;101334.22;5073369;28;20522;-68
2023/10/10 06:18:41;;;;;;;3.87;1.40;;;;;;;14.20;100.00;101331.69;5073648;28;20437;-68
2023/10/10 06:21:08;;;;;;;3.60;1.27;;;;;;;14.22;100.00;101335.75;5073311;28;20445;-67
2023/10/10 06:23:35;;;;;;;2.80;1.13;;;;;;;14.27;100.00;101334.81;5072896;28;20460;-69
2023/10/10 06:26:02;;;;;;;3.07;1.20;;;;;;;14.30;100.00;101345.91;5075144;28;20489;-69
2023/10/10 06:28:35;;;;;;;2.80;0.97;;;;;;;14.31;100.00;101347.53;5077241;28;20508;-69
2023/10/10 06:31:09;;;;;;;3.50;1.40;;;;;;;14.33;100.00;101341.75;5074175;28;20425;-68
2023/10/10 06:33:40;;;;;;;3.10;1.10;;;;;;;14.32;100.00;101346.41;5074337;28;20527;-67
2023/10/10 06:36:32;;;;;;;3.53;1.30;;;;;;;14.34;100.00;101341.47;5076278;28;20456;-69
2023/10/10 06:41:47;;;;;;;4.10;1.10;;;;;;;14.39;100.00;101351.44;5076323;28;20409;-70
2023/10/10 06:44:17;;;;;;;5.07;0.90;;;;;;;14.45;100.00;101361.09;5076503;28;20457;-69
2023/10/10 06:46:47;;;;;;;2.40;1.00;;;;;;;14.46;100.00;101361.91;5076517;28;20492;-69
2023/10/10 06:49:13;;;;;;;3.50;0.90;;;;;;;14.49;100.00;101353.16;5076540;28;20449;-69
2023/10/10 06:51:40;;;;;;;2.93;1.20;;;;;;;14.54;100.00;101358.47;5076452;28;20435;-69
2023/10/10 06:54:08;;;;;;;3.33;0.90;;;;;;;14.57;100.00;101368.78;5076260;28;20437;-69
2023/10/10 06:56:45;;;;;;;4.03;1.43;;;;;;;14.56;100.00;101362.50;5076221;28;20576;-69
2023/10/10 06:59:16;;;;;;;2.57;0.90;;;;;;;14.57;100.00;101366.06;5076380;28;20421;-68
2023/10/10 07:01:46;;;;;;;3.40;1.37;;;;;;;14.60;100.00;101366.22;5076001;28;20916;-70
2023/10/10 07:04:13;;;;;;;3.00;1.00;;;;;;;14.63;100.00;101373.78;5077260;28;20528;-69
2023/10/10 07:06:43;;;;;;;4.17;1.17;;;;;;;14.69;100.00;101371.75;5075746;28;20464;-69
2023/10/10 07:09:17;;;;;;;4.90;1.63;;;;;;;14.71;100.00;101374.97;5075952;28;20449;-70
2023/10/10 07:11:44;;;;;;;3.00;1.07;;;;;;;14.74;100.00;101379.00;5075996;28;20520;-70
2023/10/10 07:14:12;;;;;;;2.30;0.90;;;;;;;14.78;100.00;101380.00;5075592;28;20933;-69
2023/10/10 07:16:42;;;;;;;4.03;1.23;;;;;;;14.82;100.00;101380.97;5075762;28;20493;-69
2023/10/10 07:19:22;;;;;;;2.90;0.90;;;;;;;14.84;100.00;101374.13;5076060;28;20444;-69
2023/10/10 07:21:51;;;;;;;3.40;1.50;;;;;;;14.85;100.00;101378.44;5075805;28;20417;-69
2023/10/10 07:24:18;;;;;;;3.13;1.43;;;;;;;14.85;100.00;101381.19;5075659;28;20483;-69
2023/10/10 07:26:58;;;;;;;2.43;0.90;;;;;;;14.86;100.00;101377.31;5075239;28;20831;-69
2023/10/10 07:29:30;;;;;;;4.30;1.70;;;;;;;14.82;100.00;101384.50;5076000;28;20455;-69
2023/10/10 07:32:06;;;;;;;4.53;1.20;;;;;;;14.83;100.00;101383.41;5075496;28;20437;-69
2023/10/10 07:34:42;;;;;;;3.20;1.27;;;;;;;14.84;100.00;101385.03;5075538;28;20421;-69
2023/10/10 07:37:09;;;;;;;3.53;1.30;;;;;;;14.88;100.00;101387.94;5075484;28;20519;-69
2023/10/10 07:39:36;;;;;;;3.40;0.90;;;;;;;14.84;100.00;101385.03;5075477;28;20441;-69
2023/10/10 07:42:08;;;;;;;3.30;1.00;;;;;;;14.84;100.00;101389.69;5075488;28;20437;-69
2023/10/10 07:44:36;;;;;;;5.27;1.43;;;;;;;14.91;100.00;101384.59;5075871;28;20418;-69
2023/10/10 07:47:19;;;;;;;3.63;1.50;;;;;;;14.99;100.00;101385.75;5075059;28;20449;-69
2023/10/10 07:49:50;;;;;;;4.70;1.50;;;;;;;15.06;100.00;101386.13;5075303;28;20430;-69
2023/10/10 07:52:20;;;;;;;4.00;1.77;;;;;;;15.12;100.00;101395.81;5075018;28;20898;-69
2023/10/10 07:54:51;;;;;;;5.90;1.77;;;;;;;15.20;100.00;101400.50;5074948;28;20544;-69
2023/10/10 07:57:22;;;;;;;3.60;1.40;;;;;;;15.27;100.00;101403.63;5074980;28;20832;-69
2023/10/10 07:59:49;;;;;;;3.20;1.40;;;;;;;15.32;100.00;101395.28;5075367;28;20608;-69
2023/10/10 08:02:25;;;;;;;5.27;2.50;;;;;;;15.30;100.00;101402.97;5074949;28;20467;-69
2023/10/10 08:04:54;;;;;;;3.20;1.00;;;;;;;15.34;100.00;101405.88;5075304;28;20425;-69
2023/10/10 08:07:23;;;;;;;3.07;1.17;;;;;;;15.43;100.00;101401.28;5074378;28;20836;-69
2023/10/10 08:10:11;;;;;;;4.30;1.60;;;;;;;15.52;100.00;101410.31;5075200;28;20471;-69
2023/10/10 08:12:37;;;;;;;3.10;1.20;;;;;;;15.55;100.00;101409.69;5074837;28;20433;-69
2023/10/10 08:15:19;;;;;;;3.20;1.20;;;;;;;15.62;100.00;101410.03;5074385;28;20469;-69
2023/10/10 08:17:52;;;;;;;2.93;1.10;;;;;;;15.68;100.00;101402.56;5074653;28;20622;-68
2023/10/10 08:23:04;;;;;;;2.60;0.90;;;;;;;15.76;100.00;101401.78;5073857;28;20816;-69
2023/10/10 08:25:32;;;;;;;4.20;1.37;;;;;;;15.83;100.00;101404.84;5074601;28;20484;-69
2023/10/10 08:27:59;;;;;;;3.50;1.60;;;;;;;15.86;100.00;101406.97;5074035;28;20872;-69
2023/10/10 08:30:26;;;;;;;5.13;1.53;;;;;;;15.90;100.00;101407.13;5074693;28;20447;-69
2023/10/10 08:32:54;;;;;;;3.20;1.37;;;;;;;15.87;100.00;101405.81;5074745;28;20444;-69
2023/10/10 08:35:23;;;;;;;3.20;1.00;;;;;;;15.91;100.00;101406.00;5074661;28;20441;-69
2023/10/10 08:37:51;;;;;;;3.20;1.57;;;;;;;15.98;100.00;101411.00;5074056;28;20485;-70
2023/10/10 08:40:19;;;;;;;3.30;1.60;;;;;;;16.02;100.00;101411.97;5074724;28;20449;-70
2023/10/10 08:42:47;;;;;;;3.00;1.20;;;;;;;16.08;100.00;101399.78;5074228;28;20531;-69
2023/10/10 08:45:22;;;;;;;4.23;1.30;;;;;;;16.09;100.00;101404.13;5073835;28;20442;-68
2023/10/10 08:47:52;;;;;;;4.27;1.90;;;;;;;16.09;100.00;101402.19;5074270;28;20460;-69
2023/10/10 08:50:19;;;;;;;3.30;1.30;;;;;;;16.02;100.00;101406.50;5074045;28;20441;-69
2023/10/10 08:52:47;;;;;;;3.90;1.67;;;;;;;16.05;100.00;101414.06;5074032;28;20866;-69
2023/10/10 08:55:17;;;;;;;3.87;1.47;;;;;;;16.07;100.00;101406.34;5073965;28;20528;-69
2023/10/10 08:57:44;;;;;;;2.70;1.10;;;;;;;16.02;100.00;101412.78;5073273;28;20493;-69
2023/10/10 09:00:17;;;;;;;2.97;1.23;;;;;;;16.02;100.00;101411.97;5073978;28;21001;-69
2023/10/10 09:02:45;;;;;;;3.40;1.43;;;;;;;16.07;100.00;101409.91;5073914;28;20425;-70
2023/10/10 09:05:14;;;;;;;3.13;1.13;;;;;;;16.06;100.00;101407.47;5073637;28;20433;-70
2023/10/10 09:07:43;;;;;;;3.17;1.60;;;;;;;16.05;100.00;101401.22;5073618;28;20474;-70
2023/10/10 09:10:14;;;;;;;3.37;1.37;;;;;;;15.95;100.00;101406.97;5073855;28;20445;-70
2023/10/10 09:12:55;;;;;;;3.47;1.10;;;;;;;16.01;100.00;101407.63;5074141;28;20957;-70
2023/10/10 09:15:22;;;;;;;2.80;1.17;;;;;;;16.09;100.00;101412.31;5073952;28;20425;-70
2023/10/10 09:17:55;;;;;;;2.60;0.97;;;;;;;16.10;100.00;101419.38;5073289;28;20485;-70
2023/10/10 09:20:28;;;;;;;4.57;1.20;;;;;;;16.10;100.00;101413.94;5073636;28;20490;-70
2023/10/10 09:22:58;;;;;;;2.93;1.10;;;;;;;16.16;100.00;101415.41;5073657;28;20422;-70
2023/10/10 09:25:31;;;;;;;3.03;1.20;;;;;;;16.22;100.00;101413.31;5073590;28;20448;-70
2023/10/10 09:27:59;;;;;;;3.07;1.30;;;;;;;16.29;100.00;101416.38;5073841;28;20453;-70
2023/10/10 09:30:31;;;;;;;2.40;0.90;;;;;;;16.30;100.00;101409.81;5073887;28;20445;-70
2023/10/10 09:33:00;;;;;;;2.80;1.20;;;;;;;16.32;100.00;101410.28;5073570;28;20421;-70
2023/10/10 09:35:28;;;;;;;2.80;1.13;;;;;;;16.36;100.00;101416.72;5073412;28;20437;-70
2023/10/10 09:37:57;;;;;;;3.37;0.83;;;;;;;16.34;100.00;101408.03;5073074;28;20825;-70
2023/10/10 09:40:25;;;;;;;3.90;1.00;;;;;;;16.29;100.00;101419.09;5073447;28;20793;-70
2023/10/10 09:43:11;;;;;;;3.43;1.00;;;;;;;16.27;100.00;101430.38;5073796;28;20851;-70
2023/10/10 09:45:53;;;;;;;2.50;1.10;;;;;;;16.26;100.00;101417.84;5073534;28;20475;-70
2023/10/10 09:48:46;;;;;;;2.80;1.17;;;;;;;16.20;100.00;101413.63;5073369;28;20505;-70
2023/10/10 09:52:47;;;;;;;3.67;1.53;;;;;;;16.21;100.00;101425.38;5073396;28;20469;-70
2023/10/10 09:54:19;;;;;;;3.83;1.40;;;;;;;16.23;100.00;101417.66;5072843;28;20442;-70
2023/10/10 09:56:53;;;;;;;3.07;1.33;;;;;;;16.33;100.00;101418.16;5073162;28;20493;-70
2023/10/10 09:59:28;;;;;;;2.77;0.93;;;;;;;16.47;100.00;101422.66;5073521;28;20472;-70
2023/10/10 10:02:00;;;;;;;3.13;1.20;;;;;;;16.48;100.00;101418.84;5073299;28;20425;-70
2023/10/10 10:04:37;;;;;;;3.00;1.10;;;;;;;16.43;100.00;101421.72;5073125;28;20834;-70
2023/10/10 10:07:19;;;;;;;2.60;1.00;;;;;;;16.38;100.00;101425.41;5073261;28;20461;-70
2023/10/10 10:10:09;;;;;;;3.17;1.20;;;;;;;16.39;100.00;101429.75;5077320;28;20448;-70
2023/10/10 10:12:59;;;;;;;2.80;1.10;;;;;;;16.33;100.00;101426.34;5077106;28;20425;-70
2023/10/10 10:15:48;;;;;;;2.20;0.70;;;;;;;16.36;100.00;101422.97;5077088;28;20413;-70
2023/10/10 10:18:26;;;;;;;2.30;0.80;;;;;;;16.39;100.00;101419.63;5076934;28;20469;-70
2023/10/10 10:21:12;;;;;;;2.90;0.80;;;;;;;16.38;100.00;101437.16;5076967;28;20425;-70
2023/10/10 10:23:45;;;;;;;2.37;0.97;;;;;;;16.41;100.00;101432.97;5076854;28;20425;-70
2023/10/10 10:26:13;;;;;;;2.80;1.00;;;;;;;16.50;100.00;101432.97;5076791;28;20504;-70
2023/10/10 10:28:56;;;;;;;2.20;0.80;;;;;;;16.60;100.00;101422.53;5076544;28;20788;-70
2023/10/10 10:31:28;;;;;;;2.50;0.77;;;;;;;16.60;100.00;101427.19;5076408;28;20425;-70
2023/10/10 10:34:10;;;;;;;2.20;0.70;;;;;;;16.55;100.00;101416.41;5076425;28;20898;-70
2023/10/10 10:36:42;;;;;;;3.07;1.00;;;;;;;16.59;100.00;101423.66;5076221;28;20547;-70
2023/10/10 10:39:21;;;;;;;2.73;1.00;;;;;;;16.69;100.00;101430.75;5076588;28;20481;-70
2023/10/10 10:41:53;;;;;;;3.07;1.10;;;;;;;16.78;100.00;101428.84;5077225;28;20465;-70
2023/10/10 10:44:46;;;;;;;2.20;0.70;;;;;;;16.85;100.00;101429.16;5076855;28;20425;-70
2023/10/10 10:47:48;;;;;;;2.23;0.90;;;;;;;16.83;100.00;101422.41;5076550;28;20541;-70
2023/10/10 10:50:42;;;;;;;3.33;1.10;;;;;;;16.75;100.00;101424.03;5076400;28;20791;-70
2023/10/10 10:53:30;;;;;;;2.50;1.00;;;;;;;16.76;100.00;101422.88;5051996;28;20507;-70
2023/10/10 10:56:37;;;;;;;2.67;0.80;;;;;;;16.78;100.00;101412.44;5076574;28;20844;-70
2023/10/10 11:01:51;;;;;;;3.90;0.90;;;;;;;16.96;100.00;101405.03;5075994;28;20405;-70
2023/10/10 11:04:39;;;;;;;3.00;1.10;;;;;;;16.99;100.00;101409.03;5076147;28;20429;-70
2023/10/10 11:07:07;;;;;;;2.00;0.63;;;;;;;17.03;100.00;101410.00;5075853;28;20458;-70
2023/10/10 11:09:36;;;;;;;3.53;1.30;;;;;;;17.02;100.00;101413.84;5076303;28;20422;-70
2023/10/10 11:12:04;;;;;;;3.03;1.17;;;;;;;17.01;100.00;101404.03;5075635;28;20442;-70
2023/10/10 11:14:30;;;;;;;2.50;0.70;;;;;;;17.07;100.00;101408.22;5075960;28;20443;-70
2023/10/10 11:16:59;;;;;;;3.37;1.37;;;;;;;17.08;100.00;101412.56;5075471;28;20548;-70
2023/10/10 11:19:39;;;;;;;4.30;1.13;;;;;;;17.08;100.00;101418.03;5074849;28;20821;-70
2023/10/10 11:22:12;;;;;;;2.97;1.10;;;;;;;17.04;100.00;101414.31;5076210;28;20429;-70
2023/10/10 11:24:39;;;;;;;2.73;0.93;;;;;;;16.93;100.00;101408.41;5076428;28;20499;-70
2023/10/10 11:27:13;;;;;;;2.73;1.00;;;;;;;16.88;100.00;101420.31;5075664;28;20536;-70
2023/10/10 11:29:43;;;;;;;3.03;1.07;;;;;;;16.85;100.00;101407.25;5076046;28;20451;-70
2023/10/10 11:32:13;;;;;;;2.83;0.97;;;;;;;16.83;100.00;101408.72;5075562;28;20445;-70
2023/10/10 11:34:44;;;;;;;3.40;1.10;;;;;;;16.85;100.00;101410.00;5076242;28;20434;-70
2023/10/10 11:37:13;;;;;;;2.60;0.90;;;;;;;16.94;100.00;101407.25;5075723;28;20465;-70
2023/10/10 11:39:47;;;;;;;3.20;1.10;;;;;;;17.08;100.00;101404.34;5075333;28;20508;-70
2023/10/10 11:42:24;;;;;;;1.90;0.50;;;;;;;17.18;100.00;101398.53;5075461;28;20422;-70
2023/10/10 11:44:53;;;;;;;2.90;0.77;;;;;;;17.24;100.00;101397.22;5075422;28;20429;-70
2023/10/10 11:47:24;;;;;;;2.60;1.07;;;;;;;17.26;100.00;101397.69;5075243;28;20468;-70
2023/10/10 11:50:00;;;;;;;2.40;0.90;;;;;;;17.20;100.00;101396.28;5074957;28;20767;-70
2023/10/10 11:52:28;;;;;;;2.70;0.80;;;;;;;17.15;100.00;101393.72;5075365;28;20440;-70
2023/10/10 11:54:58;;;;;;;2.53;0.93;;;;;;;17.17;100.00;101401.59;5074821;28;20441;-70
2023/10/10 11:57:28;;;;;;;2.20;0.57;;;;;;;17.15;99.73;101391.78;5075036;28;20609;-70
2023/10/10 11:59:55;;;;;;;2.20;0.60;;;;;;;17.20;99.64;101392.72;5074643;28;20477;-70
2023/10/10 12:02:29;;;;;;;2.20;0.67;;;;;;;17.17;100.00;101393.38;5074740;28;20524;-70
2023/10/10 12:04:56;;;;;;;2.40;1.00;;;;;;;17.16;99.97;101392.56;5074643;28;20421;-70
2023/10/10 12:07:24;;;;;;;3.50;1.00;;;;;;;17.15;99.76;101380.03;5085848;22;20580;-68
2023/10/10 12:09:54;;;;;;;2.17;0.90;;;;;;;17.17;100.00;101388.69;5054729;28;20429;-68
2023/10/10 12:12:23;;;;;;;2.20;0.70;;;;;;;17.24;100.00;101388.22;5054854;28;20422;-68
2023/10/10 12:14:51;;;;;;;2.60;0.90;;;;;;;17.28;100.00;101392.72;5054800;28;20447;-68
2023/10/10 12:17:20;;;;;;;2.40;0.80;;;;;;;17.30;100.00;101384.97;5054639;28;20494;-68
2023/10/10 12:19:48;;;;;;;2.83;1.00;;;;;;;17.28;100.00;101381.75;5054634;28;20514;-68
2023/10/10 12:22:17;;;;;;;2.60;1.00;;;;;;;17.28;100.00;101376.28;5054330;28;20442;-68
2023/10/10 12:24:43;;;;;;;2.77;1.03;;;;;;;17.33;100.00;101378.03;5054925;28;20461;-68
2023/10/10 12:27:10;;;;;;;3.27;1.13;;;;;;;17.54;100.00;101362.50;5054489;28;20515;-68
2023/10/10 12:29:40;;;;;;;2.13;0.60;;;;;;;17.76;100.00;101374.34;5054818;28;20442;-68
2023/10/10 12:32:15;;;;;;;2.30;0.80;;;;;;;17.92;100.00;101372.63;5053585;28;20453;-68
2023/10/10 12:34:43;;;;;;;2.13;0.70;;;;;;;18.02;98.02;101377.75;5054760;28;20464;-68
2023/10/10 12:37:15;;;;;;;2.43;0.90;;;;;;;18.06;96.75;101373.22;5053968;28;20961;-68
2023/10/10 12:39:42;;;;;;;2.57;0.93;;;;;;;18.20;96.42;101369.41;5054310;28;21111;-68
2023/10/10 12:42:08;;;;;;;2.00;0.60;;;;;;;18.55;96.16;101364.44;5054243;28;20466;-68
2023/10/10 12:44:35;;;;;;;5.40;0.93;;;;;;;19.52;90.33;101365.88;5054304;28;20434;-68
2023/10/10 12:47:06;;;;;;;2.80;1.10;;;;;;;20.62;83.97;101368.53;5054025;28;20538;-68
2023/10/10 12:49:36;;;;;;;2.30;0.70;;;;;;;21.52;79.01;101357.97;5053795;28;20880;-68
2023/10/10 12:52:11;;;;;;;2.37;0.80;;;;;;;21.74;73.13;101351.81;5054336;28;20457;-68
2023/10/10 12:54:41;;;;;;;2.93;0.90;;;;;;;21.43;75.53;101355.38;5054458;28;20434;-67
2023/10/10 12:57:13;;;;;;;3.43;1.03;;;;;;;20.70;75.65;101353.81;5054065;28;20521;-67
2023/10/10 12:59:46;;;;;;;2.37;0.70;;;;;;;20.15;78.15;101360.84;5053768;28;20477;-68
2023/10/10 13:02:15;;;;;;;2.47;0.80;;;;;;;19.62;81.67;101351.75;5054048;28;20423;-64
2023/10/10 13:04:46;;;;;;;2.67;1.00;;;;;;;19.26;85.42;101347.00;5054159;28;20514;-68
2023/10/10 13:07:15;;;;;;;2.97;0.77;;;;;;;18.91;87.94;101344.63;5053859;28;20519;-66
2023/10/10 13:09:46;;;;;;;3.20;1.30;;;;;;;18.77;90.19;101352.34;5054512;28;20422;-67
2023/10/10 13:12:32;;;;;;;2.27;0.83;;;;;;;19.26;91.43;101350.53;5053757;28;20803;-67
2023/10/10 13:15:16;;;;;;;3.33;1.50;;;;;;;20.08;90.24;101344.13;5054193;28;20427;-67
2023/10/10 13:17:53;;;;;;;2.83;1.20;;;;;;;20.58;85.27;101346.41;5053920;28;20466;-66
2023/10/10 13:20:22;;;;;;;3.00;1.27;;;;;;;20.65;79.80;101349.38;5053338;28;20474;-66
2023/10/10 13:22:50;;;;;;;2.97;1.20;;;;;;;20.47;80.76;101350.78;5054019;28;20430;-66
2023/10/10 13:25:20;;;;;;;3.30;1.10;;;;;;;20.19;82.11;101341.69;5053303;28;20832;-66
2023/10/10 13:27:48;;;;;;;3.77;1.00;;;;;;;19.84;82.12;101337.53;5053839;28;20465;-66
2023/10/10 13:30:15;;;;;;;3.40;1.00;;;;;;;19.56;84.95;101340.13;5053220;28;20835;-66